createdAt,value
2017-08-29T00:01:53.873Z,23.14
2017-08-29T00:04:21.427Z,23.40
2017-08-29T00:06:49.751Z,22.86
2017-08-29T00:09:18.088Z,22.00
2017-08-29T00:11:46.404Z,22.14
2017-08-29T00:14:13.976Z,21.18
2017-08-29T00:16:42.303Z,23.62
2017-08-29T00:19:10.639Z,21.78
2017-08-29T00:21:38.958Z,26.00
2017-08-29T00:24:07.290Z,24.08
2017-08-29T00:26:35.624Z,22.66
2017-08-29T00:29:03.956Z,21.12
2017-08-29T00:31:32.278Z,22.16
2017-08-29T00:34:00.620Z,20.60
2017-08-29T00:36:28.940Z,22.14
2017-08-29T00:38:57.275Z,23.62
2017-08-29T00:41:25.591Z,21.48
2017-08-29T00:43:53.932Z,22.44
2017-08-29T00:46:22.257Z,21.40
2017-08-29T00:48:50.604Z,22.02
2017-08-29T00:51:18.954Z,24.30
2017-08-29T00:53:47.271Z,21.56
2017-08-29T00:56:15.610Z,21.60
2017-08-29T00:58:43.931Z,21.26
2017-08-29T01:01:12.275Z,20.96
2017-08-29T01:03:39.831Z,20.34
2017-08-29T01:06:08.179Z,21.58
2017-08-29T01:08:36.495Z,26.32
2017-08-29T01:11:04.827Z,22.06
2017-08-29T01:13:32.381Z,21.62
2017-08-29T01:16:00.716Z,22.26
2017-08-29T01:18:29.032Z,19.34
2017-08-29T01:20:57.373Z,24.26
2017-08-29T01:23:25.697Z,22.08
2017-08-29T01:25:54.036Z,21.14
2017-08-29T01:28:22.352Z,22.30
2017-08-29T01:30:50.703Z,21.58
2017-08-29T01:33:19.026Z,22.64
2017-08-29T01:35:47.347Z,22.00
2017-08-29T01:38:15.683Z,20.50
2017-08-29T01:40:44.010Z,20.92
2017-08-29T01:43:12.349Z,20.24
2017-08-29T01:45:40.662Z,21.46
2017-08-29T01:48:09.005Z,21.66
2017-08-29T01:50:37.324Z,20.28
2017-08-29T01:53:05.664Z,22.36
2017-08-29T01:55:33.213Z,22.34
2017-08-29T01:58:01.555Z,21.48
2017-08-29T02:00:29.879Z,20.68
2017-08-29T02:02:58.216Z,18.36
2017-08-29T02:05:26.539Z,20.10
2017-08-29T02:07:54.891Z,22.98
2017-08-29T02:10:23.221Z,20.72
2017-08-29T02:12:51.540Z,20.96
2017-08-29T02:15:19.884Z,20.62
2017-08-29T02:17:48.216Z,21.38
2017-08-29T02:20:16.554Z,21.36
2017-08-29T02:22:44.878Z,23.08
2017-08-29T02:25:13.219Z,20.38
2017-08-29T02:27:41.537Z,22.36
2017-08-29T02:30:09.875Z,20.24
2017-08-29T02:32:38.192Z,20.12
2017-08-29T02:35:06.539Z,20.84
2017-08-29T02:37:34.869Z,20.82
2017-08-29T02:40:03.217Z,21.90
2017-08-29T02:42:31.540Z,24.66
2017-08-29T02:44:59.884Z,23.60
2017-08-29T02:47:28.205Z,20.74
2017-08-29T02:49:56.551Z,20.98
2017-08-29T02:52:24.878Z,22.06
2017-08-29T02:54:53.215Z,20.68
2017-08-29T02:57:21.533Z,20.28
2017-08-29T02:59:49.881Z,21.20
2017-08-29T03:02:18.203Z,21.42
2017-08-29T03:04:46.559Z,22.52
2017-08-29T03:07:14.880Z,20.38
2017-08-29T03:09:43.200Z,19.80
2017-08-29T03:12:11.540Z,23.96
2017-08-29T03:14:39.860Z,20.98
2017-08-29T03:17:08.359Z,19.84
2017-08-29T03:19:35.916Z,21.38
2017-08-29T03:22:04.256Z,20.44
2017-08-29T03:24:32.574Z,20.02
2017-08-29T03:27:00.927Z,22.12
2017-08-29T03:29:29.246Z,19.32
2017-08-29T03:31:57.591Z,23.48
2017-08-29T03:34:25.908Z,19.68
2017-08-29T03:36:54.250Z,21.88
2017-08-29T03:39:22.575Z,21.48
2017-08-29T03:41:50.914Z,19.32
2017-08-29T03:44:18.473Z,20.40
2017-08-29T03:46:46.791Z,19.54
2017-08-29T03:49:15.139Z,18.70
2017-08-29T03:51:43.464Z,20.36
2017-08-29T03:54:11.802Z,22.22
2017-08-29T03:56:40.117Z,20.36
2017-08-29T03:59:08.459Z,20.78
2017-08-29T04:01:36.791Z,20.80
2017-08-29T04:04:05.127Z,21.76
2017-08-29T04:06:33.454Z,20.64
2017-08-29T04:09:01.788Z,23.24
2017-08-29T04:11:30.107Z,21.84
2017-08-29T04:13:58.443Z,24.32
2017-08-29T04:16:26.760Z,23.34
2017-08-29T04:18:55.113Z,23.54
2017-08-29T04:21:23.444Z,18.64
2017-08-29T04:23:51.763Z,21.52
2017-08-29T04:26:20.100Z,20.60
2017-08-29T04:28:48.421Z,22.04
2017-08-29T04:31:16.758Z,19.70
2017-08-29T04:33:45.080Z,19.32
2017-08-29T04:36:13.419Z,19.92
2017-08-29T04:38:41.740Z,22.04
2017-08-29T04:41:10.091Z,19.94
2017-08-29T04:43:38.407Z,19.82
2017-08-29T04:46:06.758Z,19.08
2017-08-29T04:48:35.083Z,22.24
2017-08-29T04:51:03.420Z,19.58
2017-08-29T04:53:31.739Z,19.44
2017-08-29T04:56:00.055Z,20.50
2017-08-29T04:58:28.394Z,18.46
2017-08-29T05:00:56.720Z,19.80
2017-08-29T05:03:25.078Z,19.80
2017-08-29T05:05:53.397Z,17.46
2017-08-29T05:08:21.737Z,21.88
2017-08-29T05:10:50.071Z,19.10
2017-08-29T05:13:18.415Z,18.54
2017-08-29T05:15:46.732Z,18.34
2017-08-29T05:18:15.071Z,17.60
2017-08-29T05:20:43.384Z,16.22
2017-08-29T05:23:11.724Z,20.28
2017-08-29T05:25:40.040Z,18.24
2017-08-29T05:28:08.391Z,17.42
2017-08-29T05:30:36.699Z,17.24
2017-08-29T05:33:05.020Z,18.22
2017-08-29T05:35:33.362Z,16.62
2017-08-29T05:38:01.675Z,16.58
2017-08-29T05:40:30.023Z,17.48
2017-08-29T05:42:58.343Z,16.80
2017-08-29T05:45:26.678Z,17.62
2017-08-29T05:47:54.990Z,19.08
2017-08-29T05:50:23.322Z,18.62
2017-08-29T05:52:51.641Z,17.62
2017-08-29T05:55:19.971Z,17.58
2017-08-29T05:57:48.285Z,17.66
2017-08-29T06:00:16.608Z,18.32
2017-08-29T06:02:44.960Z,22.16
2017-08-29T06:05:13.272Z,18.02
2017-08-29T06:07:41.611Z,17.56
2017-08-29T06:10:09.923Z,17.08
2017-08-29T06:12:38.259Z,17.08
2017-08-29T06:15:06.566Z,17.64
2017-08-29T06:17:34.904Z,16.94
2017-08-29T06:20:03.217Z,16.84
2017-08-29T06:22:31.551Z,16.90
2017-08-29T06:24:59.866Z,17.42
2017-08-29T06:27:28.191Z,17.02
2017-08-29T06:29:56.505Z,17.40
2017-08-29T06:32:24.851Z,15.94
2017-08-29T06:34:53.158Z,17.00
2017-08-29T06:37:21.480Z,15.20
2017-08-29T06:39:49.815Z,17.10
2017-08-29T06:42:18.128Z,17.44
2017-08-29T06:44:46.470Z,16.30
2017-08-29T06:47:14.780Z,17.28
2017-08-29T06:49:43.112Z,20.76
2017-08-29T06:52:11.444Z,15.94
2017-08-29T06:54:39.787Z,15.90
2017-08-29T06:57:08.105Z,16.06
2017-08-29T06:59:36.445Z,15.76
2017-08-29T07:02:04.757Z,15.20
2017-08-29T07:04:32.332Z,15.74
2017-08-29T07:07:00.644Z,16.30
2017-08-29T07:09:28.970Z,15.62
2017-08-29T07:11:57.284Z,15.76
2017-08-29T07:14:25.630Z,14.60
2017-08-29T07:16:53.956Z,15.58
2017-08-29T07:19:22.267Z,14.32
2017-08-29T07:21:50.622Z,14.70
2017-08-29T07:24:18.936Z,15.26
2017-08-29T07:26:47.273Z,15.14
2017-08-29T07:29:14.824Z,15.26
2017-08-29T07:31:43.159Z,13.06
2017-08-29T07:34:11.476Z,13.84
2017-08-29T07:36:39.039Z,14.32
2017-08-29T07:39:07.353Z,13.40
2017-08-29T07:41:35.687Z,12.68
2017-08-29T07:44:03.999Z,13.94
2017-08-29T07:46:32.330Z,12.88
2017-08-29T07:49:00.643Z,13.06
2017-08-29T07:51:28.986Z,13.06
2017-08-29T07:53:57.311Z,13.28
2017-08-29T07:56:25.659Z,13.84
2017-08-29T07:58:53.971Z,13.48
2017-08-29T08:01:22.288Z,13.88
2017-08-29T08:03:50.634Z,13.08
2017-08-29T08:06:18.952Z,14.22
2017-08-29T08:08:47.295Z,14.32
2017-08-29T08:11:15.680Z,13.30
2017-08-29T08:13:44.033Z,13.88
2017-08-29T08:16:12.363Z,13.58
2017-08-29T08:18:40.708Z,13.38
2017-08-29T08:21:09.031Z,13.74
2017-08-29T08:23:37.373Z,13.54
2017-08-29T08:26:05.696Z,12.84
2017-08-29T08:28:34.028Z,13.26
2017-08-29T08:31:02.343Z,13.76
2017-08-29T08:33:29.915Z,14.56
2017-08-29T08:35:58.224Z,14.08
2017-08-29T08:38:26.570Z,14.34
2017-08-29T08:40:54.883Z,13.66
2017-08-29T08:43:23.215Z,13.30
2017-08-29T08:45:51.528Z,13.38
2017-08-29T08:48:19.872Z,13.30
2017-08-29T08:50:48.187Z,14.18
2017-08-29T08:53:16.539Z,14.30
2017-08-29T08:55:44.852Z,15.46
2017-08-29T08:58:13.176Z,14.02
2017-08-29T09:00:40.750Z,12.58
2017-08-29T09:03:09.070Z,12.76
2017-08-29T09:05:37.411Z,13.00
2017-08-29T09:08:05.727Z,12.88
2017-08-29T09:10:33.299Z,12.50
2017-08-29T09:13:01.612Z,13.34
2017-08-29T09:15:29.946Z,14.22
2017-08-29T09:17:58.259Z,12.54
2017-08-29T09:20:26.595Z,13.70
2017-08-29T09:22:54.910Z,14.34
2017-08-29T09:25:23.251Z,12.76
2017-08-29T09:27:51.568Z,13.14
2017-08-29T09:30:19.906Z,12.22
2017-08-29T09:32:47.456Z,12.34
2017-08-29T09:35:15.812Z,10.14
2017-08-29T09:37:44.176Z,9.88
2017-08-29T09:40:12.487Z,10.98
2017-08-29T09:42:40.863Z,12.04
2017-08-29T09:45:09.188Z,10.96
2017-08-29T09:47:37.523Z,11.20
2017-08-29T09:50:05.075Z,11.58
2017-08-29T09:52:33.448Z,12.30
2017-08-29T09:55:01.769Z,11.90
2017-08-29T09:57:30.165Z,10.40
2017-08-29T09:59:58.480Z,10.90
2017-08-29T10:02:26.819Z,11.86
2017-08-29T10:04:54.395Z,12.98
2017-08-29T10:07:22.732Z,11.14
2017-08-29T10:09:51.071Z,10.20
2017-08-29T10:12:19.701Z,10.44
2017-08-29T10:14:48.012Z,10.88
2017-08-29T10:17:16.362Z,11.08
2017-08-29T10:19:44.678Z,11.50
2017-08-29T10:22:12.992Z,11.40
2017-08-29T10:24:41.335Z,9.80
2017-08-29T10:27:09.656Z,11.56
2017-08-29T10:29:37.225Z,10.64
2017-08-29T10:32:05.547Z,9.46
2017-08-29T10:34:33.885Z,10.66
2017-08-29T10:37:02.202Z,10.46
2017-08-29T10:39:30.707Z,11.02
2017-08-29T10:41:59.259Z,11.00
2017-08-29T10:44:27.595Z,10.12
2017-08-29T10:46:56.181Z,10.92
2017-08-29T10:49:24.523Z,10.98
2017-08-29T10:51:52.854Z,10.96
2017-08-29T10:54:21.207Z,10.00
2017-08-29T10:56:49.515Z,10.34
2017-08-29T10:59:17.828Z,10.88
2017-08-29T11:01:46.179Z,11.42
2017-08-29T11:04:14.495Z,10.30
2017-08-29T11:06:42.823Z,12.76
2017-08-29T11:09:11.140Z,10.60
2017-08-29T11:11:39.483Z,10.78
2017-08-29T11:14:07.799Z,9.02
2017-08-29T11:16:36.129Z,9.80
2017-08-29T11:19:04.440Z,10.62
2017-08-29T11:21:32.779Z,10.14
2017-08-29T11:24:01.095Z,11.74
2017-08-29T11:26:29.436Z,10.12
2017-08-29T11:28:57.748Z,10.24
2017-08-29T11:31:26.084Z,11.42
2017-08-29T11:33:54.392Z,10.42
2017-08-29T11:36:22.727Z,9.96
2017-08-29T11:38:51.073Z,11.02
2017-08-29T11:41:19.391Z,10.56
2017-08-29T11:43:47.747Z,10.20
2017-08-29T11:46:16.068Z,10.28
2017-08-29T11:48:44.422Z,10.62
2017-08-29T11:51:12.740Z,10.54
2017-08-29T11:53:41.080Z,10.42
2017-08-29T11:56:09.412Z,11.26
2017-08-29T11:58:37.762Z,11.62
2017-08-29T12:01:06.622Z,12.08
2017-08-29T12:03:34.971Z,11.16
2017-08-29T12:06:03.299Z,11.38
2017-08-29T12:08:31.618Z,10.74
2017-08-29T12:10:59.954Z,10.38
2017-08-29T12:13:28.273Z,10.46
2017-08-29T12:15:56.603Z,10.50
2017-08-29T12:18:24.920Z,11.06
2017-08-29T12:20:53.268Z,10.96
2017-08-29T12:23:21.579Z,10.36
2017-08-29T12:25:49.958Z,10.38
2017-08-29T12:28:18.273Z,10.78
2017-08-29T12:30:46.611Z,10.18
2017-08-29T12:33:14.926Z,10.64
2017-08-29T12:35:43.263Z,9.76
2017-08-29T12:38:11.595Z,9.88
2017-08-29T12:40:39.936Z,10.02
2017-08-29T12:43:08.255Z,10.78
2017-08-29T12:45:36.600Z,10.00
2017-08-29T12:48:04.907Z,10.08
2017-08-29T12:50:33.222Z,10.40
2017-08-29T12:53:01.550Z,10.02
2017-08-29T12:55:29.871Z,10.90
2017-08-29T12:57:58.264Z,9.96
2017-08-29T13:00:26.576Z,10.42
2017-08-29T13:02:54.912Z,11.04
2017-08-29T13:05:23.224Z,10.24
2017-08-29T13:07:51.561Z,10.72
2017-08-29T13:10:20.856Z,9.74
2017-08-29T13:12:49.196Z,10.14
2017-08-29T13:15:17.516Z,9.92
2017-08-29T13:17:45.852Z,9.50
2017-08-29T13:20:14.208Z,9.06
2017-08-29T13:22:42.564Z,9.40
2017-08-29T13:25:10.871Z,9.38
2017-08-29T13:27:39.195Z,10.38
2017-08-29T13:30:07.527Z,10.32
2017-08-29T13:32:35.066Z,9.82
2017-08-29T13:35:03.404Z,10.04
2017-08-29T13:37:31.711Z,9.48
2017-08-29T13:40:00.040Z,9.32
2017-08-29T13:42:28.351Z,9.40
2017-08-29T13:44:56.687Z,9.60
2017-08-29T13:47:24.999Z,9.60
2017-08-29T13:49:53.339Z,8.98
2017-08-29T13:52:21.651Z,8.94
2017-08-29T13:54:49.978Z,8.94
2017-08-29T13:57:18.299Z,8.80
2017-08-29T13:59:46.631Z,8.78
2017-08-29T14:02:14.962Z,8.78
2017-08-29T14:04:43.273Z,8.44
2017-08-29T14:07:11.601Z,9.48
2017-08-29T14:09:39.907Z,8.22
2017-08-29T14:12:08.240Z,8.10
2017-08-29T14:14:36.560Z,9.90
2017-08-29T14:17:04.892Z,9.90
2017-08-29T14:19:33.205Z,9.16
2017-08-29T14:22:01.532Z,8.46
2017-08-29T14:24:29.855Z,8.88
2017-08-29T14:26:58.196Z,7.94
2017-08-29T14:29:26.506Z,9.06
2017-08-29T14:31:54.861Z,9.00
2017-08-29T14:34:23.177Z,19.98
2017-08-29T14:36:51.487Z,9.06
2017-08-29T14:39:19.848Z,10.20
2017-08-29T14:41:48.195Z,9.60
2017-08-29T14:44:16.528Z,9.98
2017-08-29T14:46:56.579Z,10.36
2017-08-29T14:49:24.921Z,9.18
2017-08-29T14:51:53.241Z,9.40
2017-08-29T14:54:21.581Z,9.46
2017-08-29T14:56:49.896Z,10.00
2017-08-29T14:59:18.234Z,11.66
2017-08-29T15:01:46.555Z,11.62
2017-08-29T15:04:14.891Z,8.36
2017-08-29T15:06:43.198Z,8.44
2017-08-29T15:09:11.549Z,9.16
2017-08-29T15:11:39.860Z,9.06
2017-08-29T15:14:08.172Z,8.12
2017-08-29T15:16:36.512Z,8.42
2017-08-29T15:19:04.820Z,8.32
2017-08-29T15:21:33.157Z,8.52
2017-08-29T15:24:01.470Z,10.28
2017-08-29T15:26:29.794Z,7.68
2017-08-29T15:28:58.103Z,8.04
2017-08-29T15:31:26.439Z,7.64
2017-08-29T15:33:54.752Z,8.08
2017-08-29T15:36:23.101Z,7.70
2017-08-29T15:38:51.409Z,8.28
2017-08-29T15:41:19.761Z,8.26
2017-08-29T15:43:48.076Z,8.00
2017-08-29T15:46:16.383Z,8.28
2017-08-29T15:48:44.715Z,7.88
2017-08-29T15:51:13.032Z,9.02
2017-08-29T15:53:41.360Z,7.70
2017-08-29T15:56:09.677Z,7.76
2017-08-29T15:58:38.003Z,7.72
2017-08-29T16:01:06.315Z,7.90
2017-08-29T16:03:34.652Z,7.18
2017-08-29T16:06:02.964Z,8.00
2017-08-29T16:08:31.296Z,7.46
2017-08-29T16:10:59.617Z,7.34
2017-08-29T16:13:27.951Z,10.24
2017-08-29T16:15:56.263Z,8.86
2017-08-29T16:18:24.600Z,8.86
2017-08-29T16:20:52.964Z,7.26
2017-08-29T16:23:21.274Z,7.64
2017-08-29T16:25:49.610Z,9.82
2017-08-29T16:28:17.918Z,9.12
2017-08-29T16:30:46.251Z,8.02
2017-08-29T16:33:13.805Z,10.14
2017-08-29T16:35:42.135Z,8.32
2017-08-29T16:38:10.440Z,7.76
2017-08-29T16:40:38.808Z,11.10
2017-08-29T16:43:07.115Z,7.98
2017-08-29T16:45:35.450Z,8.78
2017-08-29T16:48:03.756Z,8.36
2017-08-29T16:50:32.090Z,8.28
2017-08-29T16:52:59.640Z,8.70
2017-08-29T16:55:27.977Z,9.30
2017-08-29T16:57:56.283Z,9.94
2017-08-29T17:00:24.615Z,8.46
2017-08-29T17:02:52.942Z,8.24
2017-08-29T17:05:21.281Z,8.42
2017-08-29T17:07:49.591Z,8.90
2017-08-29T17:10:17.902Z,12.92
2017-08-29T17:12:46.262Z,9.92
2017-08-29T17:15:14.616Z,13.80
2017-08-29T17:17:42.992Z,10.70
2017-08-29T17:20:11.340Z,10.68
2017-08-29T17:22:39.675Z,11.16
2017-08-29T17:25:08.031Z,9.94
2017-08-29T17:27:36.368Z,12.82
2017-08-29T17:30:04.699Z,8.40
2017-08-29T17:32:33.023Z,9.00
2017-08-29T17:35:00.582Z,11.22
2017-08-29T17:37:28.917Z,9.08
2017-08-29T17:39:57.227Z,7.76
2017-08-29T17:42:25.562Z,8.58
2017-08-29T17:44:53.888Z,8.54
2017-08-29T17:47:22.231Z,9.12
2017-08-29T17:49:50.547Z,9.20
2017-08-29T17:52:18.855Z,12.06
2017-08-29T17:54:47.332Z,10.36
2017-08-29T17:57:15.639Z,9.36
2017-08-29T17:59:43.971Z,10.42
2017-08-29T18:02:12.279Z,8.40
2017-08-29T18:04:40.617Z,10.96
2017-08-29T18:07:08.934Z,10.72
2017-08-29T18:09:37.275Z,13.22
2017-08-29T18:12:05.601Z,14.60
2017-08-29T18:14:33.936Z,13.62
2017-08-29T18:17:02.265Z,16.16
2017-08-29T18:19:30.643Z,12.72
2017-08-29T18:21:58.961Z,11.58
2017-08-29T18:24:26.551Z,11.98
2017-08-29T18:26:54.979Z,12.02
2017-08-29T18:29:23.295Z,12.22
2017-08-29T18:31:51.651Z,10.54
2017-08-29T18:34:19.971Z,11.40
2017-08-29T18:36:48.312Z,11.42
2017-08-29T18:39:16.623Z,10.94
2017-08-29T18:41:45.069Z,15.46
2017-08-29T18:44:13.393Z,12.30
2017-08-29T18:46:41.727Z,11.56
2017-08-29T18:49:10.091Z,12.74
2017-08-29T18:51:38.440Z,12.76
2017-08-29T18:54:06.813Z,11.38
2017-08-29T18:56:35.151Z,12.10
2017-08-29T18:59:03.523Z,11.92
2017-08-29T19:01:31.880Z,16.84
2017-08-29T19:04:00.209Z,12.34
2017-08-29T19:06:28.630Z,12.66
2017-08-29T19:08:56.944Z,11.00
2017-08-29T19:11:25.281Z,11.44
2017-08-29T19:13:53.671Z,11.72
2017-08-29T19:16:26.219Z,11.16
2017-08-29T19:18:54.564Z,11.72
2017-08-29T19:21:22.923Z,14.32
2017-08-29T19:23:51.339Z,11.34
2017-08-29T19:26:19.657Z,12.68
2017-08-29T19:28:48.002Z,12.80
2017-08-29T19:31:16.324Z,12.76
2017-08-29T19:33:44.682Z,12.68
2017-08-29T19:36:13.083Z,14.56
2017-08-29T19:38:41.589Z,12.58
2017-08-29T19:41:09.909Z,13.48
2017-08-29T19:43:38.262Z,12.56
2017-08-29T19:46:06.578Z,13.20
2017-08-29T19:48:34.932Z,16.48
2017-08-29T19:51:03.251Z,12.18
2017-08-29T19:53:30.832Z,13.76
2017-08-29T19:55:59.147Z,13.50
2017-08-29T19:58:27.502Z,12.62
2017-08-29T20:00:55.877Z,12.40
2017-08-29T20:03:24.297Z,13.10
2017-08-29T20:05:52.623Z,12.92
2017-08-29T20:08:20.967Z,14.60
2017-08-29T20:10:49.279Z,14.36
2017-08-29T20:13:17.619Z,12.30
2017-08-29T20:15:45.939Z,12.28
2017-08-29T20:18:14.288Z,13.94
2017-08-29T20:20:42.606Z,16.04
2017-08-29T20:23:11.084Z,13.00
2017-08-29T20:25:39.408Z,13.58
2017-08-29T20:28:07.798Z,11.94
2017-08-29T20:30:36.138Z,13.08
2017-08-29T20:33:04.508Z,19.26
2017-08-29T20:35:32.843Z,15.38
2017-08-29T20:38:01.207Z,12.14
2017-08-29T20:40:29.537Z,12.40
2017-08-29T20:42:57.895Z,13.12
2017-08-29T20:45:26.220Z,12.84
2017-08-29T20:47:54.575Z,13.90
2017-08-29T20:50:22.900Z,14.86
2017-08-29T20:52:51.308Z,13.04
2017-08-29T20:55:19.643Z,14.62
2017-08-29T20:57:47.988Z,12.46
2017-08-29T21:00:16.352Z,12.44
2017-08-29T21:02:44.722Z,13.44
2017-08-29T21:05:13.149Z,12.74
2017-08-29T21:07:41.514Z,14.44
2017-08-29T21:10:09.834Z,16.54
2017-08-29T21:12:38.203Z,14.74
2017-08-29T21:15:06.574Z,14.90
2017-08-29T21:17:34.899Z,13.70
2017-08-29T21:20:03.246Z,13.86
2017-08-29T21:22:31.559Z,12.60
2017-08-29T21:24:59.919Z,14.98
2017-08-29T21:27:28.391Z,16.18
2017-08-29T21:29:56.767Z,12.26
2017-08-29T21:32:25.097Z,12.98
2017-08-29T21:34:53.484Z,12.14
2017-08-29T21:37:21.797Z,16.48
2017-08-29T21:39:50.163Z,12.58
2017-08-29T21:42:18.479Z,12.88
2017-08-29T21:44:46.834Z,12.28
2017-08-29T21:47:15.159Z,14.34
2017-08-29T21:49:42.751Z,15.26
2017-08-29T21:52:11.072Z,14.82
2017-08-29T21:54:39.413Z,13.32
2017-08-29T21:57:07.735Z,12.36
2017-08-29T21:59:36.078Z,12.88
2017-08-29T22:02:04.401Z,14.76
2017-08-29T22:04:32.744Z,12.40
2017-08-29T22:07:01.060Z,10.80
2017-08-29T22:09:29.403Z,14.16
2017-08-29T22:11:57.718Z,12.94
2017-08-29T22:14:26.068Z,13.22
2017-08-29T22:16:54.392Z,15.14
2017-08-29T22:19:22.736Z,13.24
2017-08-29T22:21:51.047Z,13.16
2017-08-29T22:24:19.395Z,12.34
2017-08-29T22:26:47.716Z,17.54
2017-08-29T22:29:16.063Z,14.96
2017-08-29T22:31:44.375Z,13.02
2017-08-29T22:34:12.715Z,12.98
2017-08-29T22:36:41.030Z,13.94
2017-08-29T22:39:09.379Z,13.54
2017-08-29T22:41:37.695Z,13.84
2017-08-29T22:44:06.043Z,17.48
2017-08-29T22:46:34.360Z,15.98
2017-08-29T22:49:02.698Z,13.80
2017-08-29T22:51:31.065Z,12.64
2017-08-29T22:53:59.413Z,13.50
2017-08-29T22:56:27.731Z,11.28
2017-08-29T22:58:56.085Z,12.50
2017-08-29T23:01:24.396Z,14.76
2017-08-29T23:03:51.944Z,14.08
2017-08-29T23:06:20.295Z,12.74
2017-08-29T23:08:48.607Z,11.94
2017-08-29T23:11:16.949Z,13.58
2017-08-29T23:13:45.263Z,12.78
2017-08-29T23:16:13.650Z,13.62
2017-08-29T23:18:41.967Z,12.96
2017-08-29T23:21:10.312Z,13.78
2017-08-29T23:23:38.627Z,13.82
2017-08-29T23:26:06.972Z,17.76
2017-08-29T23:28:35.302Z,12.98
2017-08-29T23:31:03.650Z,15.06
2017-08-29T23:33:32.987Z,13.66
2017-08-29T23:36:01.335Z,14.00
2017-08-29T23:38:29.663Z,13.70
2017-08-29T23:40:58.012Z,15.14
2017-08-29T23:43:26.328Z,16.40
2017-08-29T23:45:54.671Z,13.18
2017-08-29T23:48:22.984Z,14.22
2017-08-29T23:50:51.327Z,14.16
2017-08-29T23:53:18.875Z,12.96
2017-08-29T23:55:47.219Z,13.44
2017-08-29T23:58:15.542Z,13.48
